EW9515 Helensvale AU current weather conditions

sailwx.info

Wind at 2 knots gusting 4

Air temperature 27.2° C
Dewpoint 25.4° C

Last reported at 2020-Jan-22 12:51 UTC.
Time now 2020-Jan-22 13:28 UTC

Location: S 27°55' E 153°20'.
View on Google Maps.

See reports from other nearby stations

  
Tides and Currents Weather Stations Pressure Air Temp Water Temp Dewpoint Dewpoint Depression Visibility Wind Speed Wind Dir Waves Ship Positions
date/time (UTC)wind fromknots sea level pressurealtimeterstation pressurevisibilityair tempwater tempwave heightnotes
2020-Jan-22 13:01 27.2
2020-Jan-22 12:51 27.2
2020-Jan-22 12:41 27.2
2020-Jan-22 12:31 045 2 gusting 5 27.2
2020-Jan-22 12:21 023 1 gusting 2 27.2
2020-Jan-22 08:40 023 1 gusting 5 27.8
2020-Jan-22 08:30 045 1 gusting 2 28.3
2020-Jan-22 08:20 023 2 gusting 2 28.3
2020-Jan-22 08:10 338 1 gusting 3 27.8
2020-Jan-22 08:00 28.3
2020-Jan-22 07:50 045 3 gusting 5 28.3
2020-Jan-22 07:40 023 5 gusting 7 28.3
2020-Jan-22 07:30 28.9
2020-Jan-22 07:20 045 6 gusting 8 28.9
2020-Jan-22 07:10 023 2 gusting 6 28.9
2020-Jan-22 07:00 045 6 gusting 11 28.9
2020-Jan-22 06:50 023 4 gusting 6 29.4
2020-Jan-22 06:40 023 5 gusting 7 29.4
2020-Jan-22 06:30 023 6 gusting 11 30.0
2020-Jan-22 06:20 023 6 gusting 8 30.0
2020-Jan-22 06:10 023 8 gusting 14 30.6
2020-Jan-22 06:00 023 6 gusting 12 30.6
2020-Jan-22 05:50 023 6 gusting 16 31.1
2020-Jan-22 05:40 068 6 gusting 11 31.1
2020-Jan-22 05:30 023 6 gusting 9 31.7
2020-Jan-22 05:20 023 7 gusting 11 31.7
2020-Jan-22 05:10 023 8 gusting 13 32.2
2020-Jan-22 05:00 32.8
2020-Jan-22 04:50 023 7 gusting 10 32.8
2020-Jan-22 04:40 023 6 gusting 9 32.8
2020-Jan-22 04:30 045 6 gusting 8 32.8
2020-Jan-22 04:20 023 7 gusting 11 32.8
2020-Jan-22 04:10 023 9 gusting 13 32.8
2020-Jan-22 04:00 023 6 gusting 9 33.3
2020-Jan-22 03:50 338 5 gusting 6 32.8
2020-Jan-22 03:40 338 6 gusting 10 33.3
2020-Jan-22 03:30 33.3
2020-Jan-22 03:20 315 6 gusting 10 33.3
2020-Jan-22 03:10 338 3 gusting 5 33.3
2020-Jan-22 03:00 33.3
2020-Jan-22 02:50 33.3
2020-Jan-22 02:40 023 3 gusting 6 33.3
2020-Jan-22 02:30 023 5 gusting 6 33.3
2020-Jan-22 02:20 023 4 gusting 7 33.3
2020-Jan-22 02:10 33.3
2020-Jan-22 02:00 338 4 gusting 7 33.3
2020-Jan-22 01:50 33.3
2020-Jan-22 01:40 045 4 gusting 7 32.8
2020-Jan-22 01:30 32.8
2020-Jan-22 01:20 315 2 gusting 4 32.8
2020-Jan-22 01:10 32.8
2020-Jan-22 01:00 315 4 gusting 6 32.8
2020-Jan-22 00:50 338 1 gusting 3 32.2
2020-Jan-22 00:40 315 0 gusting 2 31.7
2020-Jan-22 00:30 045 6 gusting 9 31.7
2020-Jan-22 00:20 068 3 gusting 6 31.7
2020-Jan-22 00:10 045 3 gusting 5 31.7
2020-Jan-22 00:00 31.1
2020-Jan-21 23:50 338 4 gusting 6 31.1
2020-Jan-21 23:40 338 4 gusting 7 30.6
2020-Jan-21 23:30 30.6
2020-Jan-21 23:20 338 3 gusting 5 30.0
2020-Jan-21 23:10 023 5 gusting 6 30.0
2020-Jan-21 23:00 29.4
2020-Jan-21 22:50 045 3 gusting 6 29.4
2020-Jan-21 22:40 023 3 gusting 6 29.4
2020-Jan-21 22:30 023 2 gusting 5 29.4
2020-Jan-21 22:20 045 1 gusting 2 28.9
2020-Jan-21 22:10 023 6 gusting 7 28.9
2020-Jan-21 22:00 28.3
2020-Jan-21 21:50 338 1 gusting 2 28.3
2020-Jan-21 21:40 023 3 gusting 5 27.8
2020-Jan-21 21:30 338 2 gusting 7 27.8
2020-Jan-21 21:20 270 3 gusting 6 27.8
2020-Jan-21 21:10 338 1 gusting 4 27.2
2020-Jan-21 21:00 26.7
2020-Jan-21 20:50 26.1
2020-Jan-21 20:40 25.6
2020-Jan-21 20:30 25.0
2020-Jan-21 20:21 24.4
2020-Jan-21 20:11 23.3
2020-Jan-21 20:01 23.3
2020-Jan-21 19:51 22.8
2020-Jan-21 19:41 22.8
2020-Jan-21 19:31 22.8
2020-Jan-21 19:21 22.8
2020-Jan-21 19:11 22.8
2020-Jan-21 19:01 22.8
2020-Jan-21 18:51 22.8
2020-Jan-21 18:41 22.8
2020-Jan-21 18:31 22.8
2020-Jan-21 18:21 23.3
2020-Jan-21 18:11 23.3
2020-Jan-21 18:01 23.3
2020-Jan-21 17:51 23.3
2020-Jan-21 17:41 23.3
2020-Jan-21 17:31 23.3
2020-Jan-21 17:21 23.3
2020-Jan-21 17:11 23.9
2020-Jan-21 17:01 23.9
2020-Jan-21 16:51 23.9
2020-Jan-21 16:41 23.9
2020-Jan-21 16:31 24.4
2020-Jan-21 16:21 24.4
2020-Jan-21 16:11 24.4
2020-Jan-21 16:01 24.4
2020-Jan-21 15:51 23.9
2020-Jan-21 15:41 23.9
2020-Jan-21 15:31 293 0 gusting 2 23.9
2020-Jan-21 15:21 23.9
2020-Jan-21 15:11 23.9
2020-Jan-21 15:01 23.9
2020-Jan-21 14:51 23.9
2020-Jan-21 14:41 23.9
2020-Jan-21 14:31 23.9
2020-Jan-21 14:21 23.9
2020-Jan-21 14:11 23.9
2020-Jan-21 14:01 23.9
2020-Jan-21 13:52 23.9
2020-Jan-21 13:42 23.9
2020-Jan-21 13:32 24.4
2020-Jan-21 13:22 24.4
2020-Jan-21 13:12 24.4
2020-Jan-21 13:02 24.4
2020-Jan-21 12:52 24.4
2020-Jan-21 12:42 24.4
2020-Jan-21 12:32 24.4
2020-Jan-21 12:27 24.4
2020-Jan-21 12:17 24.4
2020-Jan-21 12:07 25.0
2020-Jan-21 11:57 25.0
2020-Jan-21 11:47 25.0
2020-Jan-21 11:37 25.0
2020-Jan-21 11:27 25.6
2020-Jan-21 11:17 25.6
2020-Jan-21 11:07 25.6
2020-Jan-21 10:57 25.6
2020-Jan-21 10:47 25.6
2020-Jan-21 10:37 26.1
2020-Jan-21 10:27 26.1
2020-Jan-21 10:17 293 0 gusting 2 26.7
2020-Jan-21 10:07 26.7
2020-Jan-21 09:57 248 1 gusting 3 26.1
2020-Jan-21 09:47 315 1 gusting 2 26.1
2020-Jan-21 09:37 26.1
2020-Jan-21 09:27 023 5 gusting 7 26.1
2020-Jan-21 09:17 023 3 gusting 5 26.1
2020-Jan-21 09:07 25.6
2020-Jan-21 08:57 338 2 gusting 3 26.1
2020-Jan-21 08:47 315 0 gusting 2 26.7
2020-Jan-21 08:37 203 2 gusting 4 26.7
2020-Jan-21 08:27 203 4 gusting 6 25.6
2020-Jan-21 08:17 248 3 gusting 6 24.4
2020-Jan-21 08:07 248 5 gusting 8 23.9
2020-Jan-21 07:57 225 1 gusting 2 23.9
2020-Jan-21 07:47 203 0 gusting 2 23.9
2020-Jan-21 07:37 338 1 gusting 4 23.3
2020-Jan-21 07:27 23.3
2020-Jan-21 07:17 315 6 gusting 10 22.8
2020-Jan-21 07:07 225 2 gusting 3 22.8
2020-Jan-21 06:57 270 3 gusting 5 24.4
2020-Jan-21 06:47 203 9 gusting 18 26.7
2020-Jan-21 06:37 315 3 gusting 6 31.1
2020-Jan-21 06:27 315 7 gusting 12 31.1
2020-Jan-21 06:17 315 6 gusting 8 31.1
2020-Jan-21 06:07 023 3 gusting 6 32.2
2020-Jan-21 05:57 32.8
2020-Jan-21 05:47 338 6 gusting 9 32.8
2020-Jan-21 05:37 338 5 gusting 7 32.8
2020-Jan-21 05:27 338 6 gusting 10 33.3
2020-Jan-21 05:17 33.3
2020-Jan-21 05:07 33.3
2020-Jan-21 04:57 023 6 gusting 11 33.3
2020-Jan-21 04:47 338 3 gusting 6 33.3
2020-Jan-21 04:37 315 2 gusting 4 33.3
2020-Jan-21 04:27 33.3
2020-Jan-21 04:17 338 3 gusting 6 33.3
2020-Jan-21 04:07 338 4 gusting 7 33.3
2020-Jan-21 03:57 023 5 gusting 7 33.3
2020-Jan-21 03:47 32.8
2020-Jan-21 03:37 315 4 gusting 7 32.8
2020-Jan-21 03:27 023 6 gusting 11 33.3
2020-Jan-21 03:17 338 5 gusting 6 33.3
2020-Jan-21 03:07 023 5 gusting 6 33.3
2020-Jan-21 02:57 338 4 gusting 6 33.3
2020-Jan-21 02:47 33.3
2020-Jan-21 02:37 32.8
2020-Jan-21 02:27 32.8
2020-Jan-21 02:17 338 6 gusting 11 33.3
2020-Jan-21 02:07 045 6 gusting 13 32.8
2020-Jan-21 01:57 32.8
2020-Jan-21 01:47 32.8
2020-Jan-21 01:37 023 5 gusting 7 32.8
2020-Jan-21 01:27 023 3 gusting 7 33.3
2020-Jan-21 01:17 315 6 gusting 9 32.8
2020-Jan-21 01:07 315 3 gusting 6 32.8
2020-Jan-21 00:57 32.2
2020-Jan-21 00:47 315 6 gusting 8 32.2
2020-Jan-21 00:37 32.2
2020-Jan-21 00:27 338 3 gusting 5 31.7
2020-Jan-21 00:17 31.7
2020-Jan-21 00:07 315 4 gusting 7 31.1
2020-Jan-20 23:57 31.1
2020-Jan-20 23:47 30.6
2020-Jan-20 23:37 30.0
2020-Jan-20 23:27 338 0 gusting 1 30.0
2020-Jan-20 23:17 315 4 gusting 8 30.0
2020-Jan-20 23:07 315 5 gusting 7 29.4
2020-Jan-20 22:57 023 2 gusting 4 29.4
2020-Jan-20 22:47 28.9
2020-Jan-20 22:37 28.9
2020-Jan-20 22:27 023 3 gusting 6 28.3
2020-Jan-20 22:17 28.3
2020-Jan-20 22:07 338 3 gusting 5 27.8
2020-Jan-20 21:57 315 1 gusting 2 27.8
2020-Jan-20 21:47 315 0 gusting 2 27.8
2020-Jan-20 21:37 27.8
2020-Jan-20 21:27 27.2
2020-Jan-20 21:17 338 1 gusting 3 27.2
2020-Jan-20 21:07 270 2 gusting 4 26.7
2020-Jan-20 20:57 023 1 gusting 3 26.1
2020-Jan-20 20:47 26.1
2020-Jan-20 20:37 315 0 gusting 1 26.1
2020-Jan-20 20:27 26.1
2020-Jan-20 20:17 26.1
2020-Jan-20 20:07 315 0 gusting 2 26.1
2020-Jan-20 19:57 26.1
2020-Jan-20 19:47 338 0 gusting 1 26.1
2020-Jan-20 19:37 338 3 gusting 5 26.1
2020-Jan-20 19:27 293 2 gusting 6 26.1
2020-Jan-20 19:17 315 3 gusting 6 26.1
2020-Jan-20 19:07 338 1 gusting 4 26.1
2020-Jan-20 18:57 338 1 gusting 3 26.1
2020-Jan-20 18:47 26.1
2020-Jan-20 18:37 26.1
2020-Jan-20 18:27 315 3 gusting 6 26.1
2020-Jan-20 18:17 26.1
2020-Jan-20 18:07 26.1
2020-Jan-20 17:57 26.1
2020-Jan-20 17:47 26.1
2020-Jan-20 17:37 26.1
2020-Jan-20 17:27 26.1
2020-Jan-20 17:17 338 1 gusting 3 26.1
2020-Jan-20 17:07 338 1 gusting 3 26.1
2020-Jan-20 16:57 338 1 gusting 3 26.1
2020-Jan-20 16:47 315 5 gusting 7 26.1
2020-Jan-20 16:37 338 0 gusting 1 26.1
2020-Jan-20 16:27 26.1
2020-Jan-20 16:17 315 0 gusting 1 26.1
2020-Jan-20 16:07 315 0 gusting 1 26.1
2020-Jan-20 15:57 315 1 gusting 4 26.1
2020-Jan-20 15:47 25.6
2020-Jan-20 15:37 25.6
2020-Jan-20 15:27 25.6
2020-Jan-20 15:17 25.6
2020-Jan-20 15:07 25.6
2020-Jan-20 14:57 25.6
2020-Jan-20 14:47 25.6
2020-Jan-20 14:37 25.6
2020-Jan-20 14:27 25.6
2020-Jan-20 14:17 25.6
2020-Jan-20 14:07 25.6
2020-Jan-20 13:57 25.6
2020-Jan-20 13:47 25.6
2020-Jan-20 13:37 25.6
2020-Jan-20 13:27 25.6
2020-Jan-20 13:17 25.6
2020-Jan-20 13:07 25.6